Time;durP1;ratioP1;P1;durP2;ratioP2;P2;SDS_P1;SDS_P2;PMS_P1;PMS_P2;Temp;Humidity;BMP_temperature;BMP_pressure;BME280_temperature;BME280_humidity;BME280_pressure;Samples;Min_cycle;Max_cycle;Signal;HPM_P1;HPM_P2
2024/01/09 00:01:25;;;;;;;10.50;6.80;;;-6.00;54.70;;;-7.59;66.08;99062.94;5043932;28;20511;-82
2024/01/09 00:03:52;;;;;;;11.40;7.40;;;-6.00;54.60;;;-7.62;66.14;99079.69;5049587;28;20965;-81
2024/01/09 00:06:20;;;;;;;10.52;6.35;;;-6.00;54.30;;;-7.61;66.11;99056.91;5038283;28;20464;-82
2024/01/09 00:08:47;;;;;;;12.30;7.53;;;-5.90;54.40;;;-8.13;65.78;98970.16;5045291;28;20287;-83
2024/01/09 00:11:15;;;;;;;11.47;6.13;;;-5.90;54.20;;;-7.54;66.07;99061.81;5042861;28;20454;-76
2024/01/09 00:13:44;;;;;;;11.47;7.13;;;-5.90;54.20;;;-7.52;65.30;99051.19;5039531;28;20562;-79
2024/01/09 00:16:13;;;;;;;13.00;8.30;;;-5.90;54.00;;;-7.47;65.42;99062.34;5050071;28;20461;-77
2024/01/09 00:18:40;;;;;;;11.80;7.17;;;-5.90;53.90;;;-7.56;65.14;99055.78;5054278;28;20509;-80
2024/01/09 00:21:07;;;;;;;14.07;7.93;;;-5.90;53.80;;;-7.50;65.35;99056.38;5045255;28;20450;-80
2024/01/09 00:23:35;;;;;;;11.93;7.43;;;-5.90;53.70;;;-7.52;65.29;99056.47;5047669;28;20481;-80
2024/01/09 00:26:02;;;;;;;11.83;6.33;;;-5.90;53.80;;;-7.49;65.31;99056.34;5046243;28;20858;-74
2024/01/09 00:28:29;;;;;;;12.43;7.43;;;-5.90;53.60;;;-7.55;65.20;99051.34;5037416;28;20461;-81
2024/01/09 00:30:56;;;;;;;12.77;7.33;;;-5.90;53.70;;;-7.55;65.25;99060.09;5051120;28;20454;-84
2024/01/09 00:33:29;;;;;;;13.00;7.90;;;-5.90;53.60;;;-7.51;64.99;99058.16;5046482;28;20450;-82
2024/01/09 00:35:56;;;;;;;12.90;8.33;;;-5.90;53.70;;;-7.54;64.95;99068.81;5050381;28;20462;-83
2024/01/09 00:38:23;;;;;;;11.27;6.30;;;-5.90;53.50;;;-7.55;65.41;99059.25;5048441;28;20457;-81
2024/01/09 00:40:50;;;;;;;14.27;7.87;;;-5.90;53.50;;;-7.57;65.26;99047.97;5048376;28;20201;-82
2024/01/09 00:43:17;;;;;;;14.80;7.53;;;-5.90;53.60;;;-7.54;65.28;99053.91;5049505;28;20536;-82
2024/01/09 00:45:44;;;;;;;12.70;7.50;;;-5.90;53.60;;;-7.61;65.06;99041.16;5058329;28;20676;-80
2024/01/09 00:48:12;;;;;;;12.70;6.33;;;-5.90;53.50;;;-7.61;65.34;99051.69;5066252;28;20451;-76
2024/01/09 00:50:41;;;;;;;11.67;7.07;;;-5.90;53.60;;;-7.64;65.03;99051.84;5047531;28;20471;-80
2024/01/09 00:53:09;;;;;;;10.07;6.60;;;-6.00;53.70;;;-7.60;65.69;99048.13;5052105;28;20462;-84
2024/01/09 00:55:36;;;;;;;11.17;6.60;;;-6.00;53.80;;;-7.67;65.61;99047.56;5048215;28;20463;-81
2024/01/09 00:58:03;;;;;;;11.13;6.97;;;-6.00;53.80;;;-7.66;65.56;99048.41;5047456;28;20454;-79
2024/01/09 01:00:30;;;;;;;13.70;8.20;;;-6.10;53.70;;;-7.63;65.32;99037.78;5049808;28;20476;-81
2024/01/09 01:02:58;;;;;;;10.30;6.93;;;-6.00;53.60;;;-7.65;65.37;99040.47;5049119;28;20470;-82
2024/01/09 01:05:25;;;;;;;16.63;8.23;;;-6.00;53.60;;;-7.67;65.43;99044.94;5051324;28;20457;-80
2024/01/09 01:07:53;;;;;;;14.70;7.07;;;-6.00;53.70;;;-7.68;65.67;99040.63;5048659;28;20462;-80
2024/01/09 01:10:21;;;;;;;12.80;7.87;;;-6.10;53.70;;;-7.74;65.34;99036.50;5046945;28;20444;-84
2024/01/09 01:12:48;;;;;;;12.27;7.50;;;-6.00;53.60;;;-7.70;65.30;99040.69;5046199;28;20446;-80
2024/01/09 01:15:15;;;;;;;14.80;6.63;;;-6.10;53.40;;;-7.66;65.47;99046.63;5053068;28;20450;-82
2024/01/09 01:17:43;;;;;;;13.10;6.70;;;-6.10;53.50;;;-7.79;65.30;99053.41;5053295;28;20476;-84
2024/01/09 01:20:11;;;;;;;15.17;7.90;;;-6.10;53.70;;;-7.77;65.80;99051.56;5057895;28;20461;-80
2024/01/09 01:22:39;;;;;;;13.63;7.17;;;-6.20;53.60;;;-7.93;65.99;99030.47;5056359;28;20515;-81
2024/01/09 01:25:09;;;;;;;12.80;7.17;;;-6.20;53.70;;;-7.81;66.06;99061.34;5053810;28;20464;-81
2024/01/09 01:27:36;;;;;;;11.70;7.33;;;-6.20;53.80;;;-7.79;65.64;99063.91;5042353;28;20449;-84
2024/01/09 01:30:04;;;;;;;14.00;7.83;;;-6.20;53.70;;;-7.80;65.88;99060.44;5044523;28;21320;-81
2024/01/09 01:32:32;;;;;;;10.60;7.13;;;-6.20;53.60;;;-7.86;65.78;99055.47;5044498;28;20978;-79
2024/01/09 01:34:59;;;;;;;12.07;7.70;;;-6.20;53.70;;;-7.89;66.20;99053.00;5043984;28;20444;-83
2024/01/09 01:37:26;;;;;;;11.53;6.80;;;-6.20;53.60;;;-7.92;66.10;99058.41;5048575;28;20953;-82
2024/01/09 01:39:53;;;;;;;10.57;6.67;;;-6.30;53.70;;;-7.88;66.12;99060.81;5042307;28;20468;-84
2024/01/09 01:42:22;;;;;;;9.23;7.17;;;-6.30;53.80;;;-7.98;66.22;99055.13;5035842;28;20448;-79
2024/01/09 01:44:51;;;;;;;10.70;6.80;;;-6.30;53.80;;;-8.02;65.98;99037.84;5033757;28;20455;-85
2024/01/09 01:47:19;;;;;;;10.17;6.90;;;-6.30;53.90;;;-8.03;66.29;99037.94;5044547;28;20455;-82
2024/01/09 01:49:48;;;;;;;12.97;7.77;;;-6.30;53.70;;;-7.88;66.27;99070.44;5047397;28;20450;-81
2024/01/09 01:52:16;;;;;;;13.77;7.07;;;-6.30;53.80;;;-8.44;65.68;98962.88;5041440;28;20461;-82
2024/01/09 01:54:43;;;;;;;14.03;9.20;;;-6.30;53.60;;;-8.31;66.14;98978.91;5045792;28;20511;-82
2024/01/09 01:57:11;;;;;;;10.40;6.27;;;-6.20;53.70;;;-7.90;66.24;99041.63;5038509;28;20537;-77
2024/01/09 01:59:44;;;;;;;11.93;6.60;;;-6.30;53.60;;;-7.94;66.04;99034.00;5046387;28;20469;-83
2024/01/09 02:02:14;;;;;;;11.10;7.23;;;-6.20;53.70;;;-7.84;65.31;99035.25;5047209;28;21331;-77
2024/01/09 02:04:42;;;;;;;14.20;8.03;;;-6.20;53.50;;;-7.86;65.38;99029.22;5050203;28;21191;-82
2024/01/09 02:07:10;;;;;;;14.83;7.30;;;-6.20;53.30;;;-7.78;65.69;99031.47;5045765;28;20480;-83
2024/01/09 02:09:38;;;;;;;12.03;7.77;;;-6.10;53.40;;;-7.89;65.21;99011.84;5041771;28;20448;-85
2024/01/09 02:12:06;;;;;;;10.37;6.47;;;-6.10;53.20;;;-8.06;65.45;99001.31;5044893;28;20489;-82
2024/01/09 02:14:34;;;;;;;9.10;7.67;;;-6.10;53.20;;;-8.31;65.24;98948.28;5041509;28;20449;-82
2024/01/09 02:17:04;;;;;;;10.77;7.03;;;-6.10;53.20;;;-7.94;65.62;99007.78;5043633;28;20517;-83
2024/01/09 02:19:34;;;;;;;8.40;6.10;;;-6.10;53.40;;;-7.81;64.80;99021.97;5043462;28;20524;-84
2024/01/09 02:22:01;;;;;;;11.83;6.20;;;-6.10;53.20;;;-7.76;65.17;99022.63;5039345;28;21154;-83
2024/01/09 02:24:28;;;;;;;12.90;6.87;;;-6.10;53.20;;;-7.84;65.40;99022.13;5048749;28;20508;-82
2024/01/09 02:27:08;;;;;;;11.90;6.67;;;-6.20;53.20;;;-7.86;65.28;99010.88;5042438;28;20478;-75
2024/01/09 02:29:38;;;;;;;12.30;6.33;;;-6.20;53.20;;;-7.94;65.08;98997.28;5065897;28;20512;-81
2024/01/09 02:32:07;;;;;;;15.63;8.02;;;-6.20;53.10;;;-7.83;65.30;99026.44;5047624;28;20488;-82
2024/01/09 02:34:36;;;;;;;14.95;6.95;;;-6.20;53.20;;;-7.82;65.18;99009.78;5049657;28;20203;-83
2024/01/09 02:37:03;;;;;;;17.90;7.73;;;-6.20;53.10;;;-8.36;65.74;98929.28;5045438;28;20199;-83
2024/01/09 02:39:30;;;;;;;9.40;6.77;;;-6.20;53.20;;;-7.86;65.15;99016.09;5051770;28;20777;-83
2024/01/09 02:41:58;;;;;;;15.20;6.60;;;-6.20;53.20;;;-7.88;65.43;99029.31;5051811;28;20464;-83
2024/01/09 02:44:25;;;;;;;12.10;7.13;;;-6.20;53.10;;;-7.87;65.30;99017.03;5041477;28;20535;-84
2024/01/09 02:46:52;;;;;;;11.10;7.37;;;-6.20;53.20;;;-7.90;65.33;99020.66;5049250;28;20499;-85
2024/01/09 02:49:21;;;;;;;11.03;7.50;;;-6.20;53.10;;;-7.95;65.59;99016.56;5048173;28;20454;-75
2024/01/09 02:51:48;;;;;;;13.87;7.57;;;-6.30;53.10;;;-8.02;65.63;98995.84;5052612;28;20462;-82
2024/01/09 02:54:15;;;;;;;14.40;8.05;;;-6.30;53.20;;;-7.89;65.47;99011.84;5063525;28;20454;-76
2024/01/09 02:56:43;;;;;;;10.93;6.67;;;-6.20;53.10;;;-8.01;64.79;98987.06;5071583;28;20192;-83
2024/01/09 02:59:10;;;;;;;13.37;7.93;;;-6.20;53.00;;;-7.95;65.31;98990.34;5060490;28;20950;-78
2024/01/09 03:01:37;;;;;;;14.33;7.50;;;-6.20;53.00;;;-7.90;64.70;99014.56;5069086;28;20457;-82
2024/01/09 03:04:05;;;;;;;10.10;7.20;;;-6.20;52.90;;;-7.88;64.89;99021.44;5053447;28;20474;-84
2024/01/09 03:06:34;;;;;;;9.73;6.97;;;-6.20;52.90;;;-8.00;65.03;99009.75;5046586;28;20455;-82
2024/01/09 03:09:01;;;;;;;12.77;7.70;;;-6.30;53.00;;;-7.97;65.66;99014.84;5038508;28;21299;-84
2024/01/09 03:11:29;;;;;;;12.13;6.87;;;-6.30;53.20;;;-7.93;65.48;99020.81;5038212;28;20814;-83
2024/01/09 03:13:56;;;;;;;12.00;7.33;;;-6.30;53.00;;;-8.46;64.94;98928.03;5052130;28;20477;-79
2024/01/09 03:16:24;;;;;;;13.37;7.50;;;-6.20;52.80;;;-7.89;64.86;99018.88;5036922;28;20464;-83
2024/01/09 03:18:51;;;;;;;14.77;7.53;;;-6.20;52.80;;;-8.34;64.94;98950.19;5056635;28;20460;-83
2024/01/09 03:21:19;;;;;;;12.50;6.90;;;-6.30;52.70;;;-7.98;65.32;99018.41;5021582;28;20755;-76
2024/01/09 03:23:47;;;;;;;12.40;7.97;;;-6.30;52.80;;;-7.96;65.30;99036.69;5042780;28;20561;-80
2024/01/09 03:26:16;;;;;;;16.60;6.87;;;-6.30;52.80;;;-8.74;64.76;98908.38;5045333;28;20453;-76
2024/01/09 03:28:43;;;;;;;11.43;6.10;;;-6.30;52.70;;;-7.97;65.08;99029.75;5043147;28;20880;-79
2024/01/09 03:31:20;;;;;;;12.37;7.43;;;-6.30;52.70;;;-7.89;64.88;99032.00;5050947;28;20997;-79
2024/01/09 03:33:47;;;;;;;9.93;6.05;;;-6.20;52.70;;;-8.04;64.85;99002.97;5056255;28;20789;-77
2024/01/09 03:36:14;;;;;;;15.27;7.10;;;-6.20;52.60;;;-7.89;65.05;99019.72;5059182;28;21188;-73
2024/01/09 03:38:42;;;;;;;15.57;7.97;;;-6.20;52.70;;;-7.94;65.17;99023.50;5057386;28;20431;-74
2024/01/09 03:41:11;;;;;;;14.15;7.53;;;-6.30;52.60;;;-7.97;64.88;99008.75;5050012;28;20476;-82
2024/01/09 03:43:38;;;;;;;12.63;7.47;;;-6.30;52.60;;;-7.98;64.92;99015.78;5043335;28;20232;-82
2024/01/09 03:46:06;;;;;;;12.50;7.93;;;-6.30;52.50;;;-7.99;64.77;99018.47;5042233;28;20527;-83
2024/01/09 03:48:33;;;;;;;16.03;8.83;;;-6.30;52.50;;;-7.93;65.12;99026.06;5040285;28;20533;-81
2024/01/09 03:51:00;;;;;;;11.37;6.30;;;-6.30;52.60;;;-7.93;64.84;99027.84;5039307;28;20823;-84
2024/01/09 03:53:27;;;;;;;10.47;6.50;;;-6.30;52.60;;;-7.93;65.19;99028.66;5040747;28;20438;-82
2024/01/09 03:55:55;;;;;;;14.33;6.50;;;-6.30;52.80;;;-7.94;64.98;99031.38;5039879;28;20525;-81
2024/01/09 03:58:24;;;;;;;11.50;7.30;;;-6.40;52.80;;;-8.05;65.08;99040.59;5036618;28;20453;-85
2024/01/09 04:00:52;;;;;;;10.37;7.03;;;-6.40;52.90;;;-8.11;65.29;99019.94;5040349;28;20457;-86
2024/01/09 04:03:19;;;;;;;10.80;7.77;;;-6.40;53.10;;;-8.10;65.38;99024.25;5051065;28;20465;-75
2024/01/09 04:05:48;;;;;;;10.40;7.53;;;-6.40;53.00;;;-8.06;65.87;99025.78;5064949;28;20455;-76
2024/01/09 04:08:16;;;;;;;11.20;7.10;;;-6.40;53.00;;;-8.09;65.42;99039.06;5064629;28;20489;-79
2024/01/09 04:10:43;;;;;;;12.70;7.03;;;-6.40;52.70;;;-8.13;64.98;99027.00;5057229;28;20522;-85
2024/01/09 04:13:10;;;;;;;12.10;7.17;;;-6.40;52.70;;;-8.06;65.08;99036.28;5043026;28;20976;-85
2024/01/09 04:15:39;;;;;;;15.37;7.70;;;-6.40;52.70;;;-7.99;65.23;99042.09;5046810;28;20474;-83
2024/01/09 04:18:07;;;;;;;9.43;6.43;;;-6.40;52.60;;;-7.98;64.87;99049.88;5041244;28;20938;-84
2024/01/09 04:20:35;;;;;;;11.67;7.50;;;-6.30;52.60;;;-8.04;65.24;99039.69;5043951;28;20466;-84
2024/01/09 04:23:02;;;;;;;9.83;6.10;;;-6.40;52.70;;;-8.06;64.86;99038.91;5046410;28;20454;-84
2024/01/09 04:25:29;;;;;;;12.27;7.03;;;-6.40;52.60;;;-7.98;64.91;99049.88;5052594;28;21136;-84
2024/01/09 04:27:57;;;;;;;11.17;5.97;;;-6.40;52.60;;;-7.97;65.30;99046.31;5044288;28;20493;-81
2024/01/09 04:30:24;;;;;;;10.33;6.67;;;-6.40;52.70;;;-7.98;64.89;99044.63;5044603;28;20470;-79
2024/01/09 04:32:53;;;;;;;14.90;7.47;;;-6.40;52.60;;;-8.02;65.05;99027.34;5045861;28;20454;-79
2024/01/09 04:35:21;;;;;;;12.87;6.77;;;-6.40;52.60;;;-8.02;64.83;99032.59;5047034;28;20458;-79
2024/01/09 04:37:48;;;;;;;11.63;7.07;;;-6.40;52.60;;;-8.02;65.08;99037.84;5039650;28;20454;-78
2024/01/09 04:40:15;;;;;;;11.70;7.33;;;-6.40;52.70;;;-8.04;64.61;99044.06;5045153;28;20912;-81
2024/01/09 04:42:43;;;;;;;12.70;6.63;;;-6.40;52.50;;;-8.05;64.28;99032.75;5039395;28;20465;-79
2024/01/09 04:45:10;;;;;;;8.17;5.80;;;-6.40;52.50;;;-8.00;64.96;99030.75;5051543;28;20473;-81
2024/01/09 04:47:38;;;;;;;16.10;9.33;;;-6.40;52.50;;;-8.15;64.92;99020.97;5046944;28;20454;-79
2024/01/09 04:50:09;;;;;;;10.30;6.60;;;-6.40;52.50;;;-8.77;64.41;98908.53;5060040;28;20450;-78
2024/01/09 04:52:37;;;;;;;8.60;6.20;;;-6.40;52.30;;;-8.45;64.18;98948.94;5063523;28;20453;-76
2024/01/09 04:55:05;;;;;;;12.57;6.90;;;-6.40;52.10;;;-8.80;63.89;98888.56;5065799;28;20454;-79
2024/01/09 04:57:32;;;;;;;10.90;6.67;;;-6.40;52.10;;;-7.97;63.82;99017.47;5071330;28;20438;-75
2024/01/09 05:00:00;;;;;;;11.60;6.17;;;-6.30;52.00;;;-8.52;63.61;98933.59;5074964;28;20457;-76
2024/01/09 05:02:27;;;;;;;12.33;7.47;;;-6.30;51.90;;;-7.98;64.17;99007.91;5050914;28;20454;-75
2024/01/09 05:04:54;;;;;;;12.02;6.80;;;-6.30;51.90;;;-7.95;63.66;99021.81;5059280;28;20475;-78
2024/01/09 05:07:23;;;;;;;9.10;6.33;;;-6.30;51.70;;;-7.89;63.75;99032.84;5052000;28;20202;-78
2024/01/09 05:09:50;;;;;;;11.83;7.23;;;-6.30;51.90;;;-8.12;63.63;98995.44;5064859;28;20449;-79
2024/01/09 05:12:18;;;;;;;7.73;5.17;;;-6.30;51.70;;;-7.99;63.96;99016.69;5059757;28;20461;-76
2024/01/09 05:14:47;;;;;;;9.77;7.27;;;-6.30;51.80;;;-8.31;63.58;98964.00;5058717;28;20443;-81
2024/01/09 05:17:16;;;;;;;10.93;7.00;;;-6.30;51.60;;;-7.94;63.10;99013.03;5029418;28;20898;-82
2024/01/09 05:19:43;;;;;;;11.47;6.60;;;-6.30;51.40;;;-7.91;62.96;99012.88;5050283;28;20461;-83
2024/01/09 05:22:10;;;;;;;11.43;7.20;;;-6.30;51.50;;;-7.88;63.03;99008.34;5049228;28;20446;-84
2024/01/09 05:24:39;;;;;;;12.10;6.40;;;-6.30;51.60;;;-7.89;62.83;99019.72;5050531;28;20473;-83
2024/01/09 05:27:06;;;;;;;11.17;6.40;;;-6.30;51.40;;;-7.88;62.92;99012.72;5046083;28;21022;-82
2024/01/09 05:29:33;;;;;;;12.40;6.85;;;-6.20;51.30;;;-8.41;62.26;98926.06;5053635;28;20463;-81
2024/01/09 05:32:03;;;;;;;4.40;3.90;;;-6.20;51.00;;;-7.82;62.16;99017.66;5033082;28;20475;-85
2024/01/09 05:34:31;;;;;;;11.93;7.07;;;-6.10;51.00;;;-7.83;62.22;99018.56;5050808;28;20442;-82
2024/01/09 05:36:58;;;;;;;12.37;6.07;;;-6.20;50.80;;;-7.84;62.44;99011.63;5041851;28;20794;-79
2024/01/09 05:39:26;;;;;;;12.20;6.20;;;-6.20;51.10;;;-7.75;62.31;99011.19;5053352;28;20464;-81
2024/01/09 05:41:55;;;;;;;12.90;7.17;;;-6.20;50.90;;;-7.73;61.81;98996.22;5037644;28;20605;-82
2024/01/09 05:44:22;;;;;;;11.27;6.90;;;-6.00;50.60;;;-7.65;61.46;99005.50;5057544;28;20477;-82
2024/01/09 05:46:50;;;;;;;13.47;6.67;;;-6.00;50.40;;;-7.60;61.41;99014.00;5049528;28;20450;-75
2024/01/09 05:49:18;;;;;;;14.97;6.80;;;-6.00;50.40;;;-7.65;61.18;99023.88;5067312;28;21099;-75
2024/01/09 05:51:45;;;;;;;11.40;7.10;;;-6.00;50.30;;;-7.50;60.88;99019.63;5064821;28;20450;-80
2024/01/09 05:54:13;;;;;;;9.80;6.63;;;-5.90;50.00;;;-7.57;61.51;99017.31;5047918;28;20937;-82
2024/01/09 05:56:40;;;;;;;9.27;5.97;;;-5.90;50.50;;;-7.56;60.61;99023.41;5036333;28;20454;-82
2024/01/09 05:59:09;;;;;;;13.83;7.10;;;-5.90;50.30;;;-7.66;60.91;99030.88;5035313;28;20548;-76
2024/01/09 06:01:36;;;;;;;10.93;6.35;;;-5.90;49.90;;;-7.65;60.98;99023.88;5043011;28;20461;-79
2024/01/09 06:04:04;;;;;;;11.03;6.60;;;-6.00;49.90;;;-7.63;60.62;99008.91;5040707;28;20219;-81
2024/01/09 06:06:32;;;;;;;12.70;7.20;;;-5.90;49.80;;;-7.68;60.13;98999.47;5041807;28;21031;-85
2024/01/09 06:08:59;;;;;;;13.10;6.60;;;-5.90;49.70;;;-7.45;59.69;99023.72;5054103;28;20460;-71
2024/01/09 06:11:27;;;;;;;13.50;6.82;;;-5.80;49.40;;;-7.51;60.00;99023.19;5038687;28;20840;-73
2024/01/09 06:13:55;;;;;;;14.07;6.33;;;-5.90;49.70;;;-7.49;59.71;99027.44;5039098;28;20200;-72
2024/01/09 06:16:27;;;;;;;10.43;5.90;;;-5.90;49.20;;;-7.52;59.82;99029.38;5046955;28;20462;-70
2024/01/09 06:18:54;;;;;;;9.87;5.43;;;-5.90;49.10;;;-7.42;59.41;99020.13;5037103;28;21212;-71
2024/01/09 06:21:21;;;;;;;11.17;6.80;;;-5.80;49.20;;;-7.50;59.31;99028.38;5030459;28;20447;-73
2024/01/09 06:23:49;;;;;;;16.43;6.57;;;-5.90;49.00;;;-7.56;59.38;99028.66;5038393;28;20445;-74
2024/01/09 06:26:16;;;;;;;15.10;7.20;;;-5.90;48.80;;;-7.58;59.36;99027.88;5037300;28;20457;-70
2024/01/09 06:28:44;;;;;;;15.90;8.50;;;-5.90;48.80;;;-7.62;59.55;99044.72;5036419;28;20462;-72
2024/01/09 06:31:13;;;;;;;11.67;6.67;;;-6.00;48.80;;;-7.55;58.60;99018.09;5035268;28;20469;-67
2024/01/09 06:33:42;;;;;;;11.20;7.28;;;-5.90;48.40;;;-7.44;58.01;99022.81;5053216;28;20465;-71
2024/01/09 06:36:10;;;;;;;11.93;6.53;;;-5.80;48.20;;;-7.49;57.66;99027.44;5033820;28;20238;-74
2024/01/09 06:38:37;;;;;;;14.43;7.32;;;-5.80;47.90;;;-7.48;58.16;99025.66;5032589;28;20455;-69
2024/01/09 06:41:04;;;;;;;17.50;8.43;;;-5.80;47.90;;;-7.63;58.05;99016.78;5044810;28;20544;-68
2024/01/09 06:43:32;;;;;;;13.70;7.67;;;-5.90;47.90;;;-7.55;57.75;99014.59;5055017;28;20454;-69
2024/01/09 06:45:59;;;;;;;10.30;6.60;;;-5.90;48.00;;;-7.53;57.76;99018.00;5041833;28;20484;-71
2024/01/09 06:48:26;;;;;;;12.73;7.50;;;-5.90;47.90;;;-7.36;58.59;99018.94;5034205;28;20961;-72
2024/01/09 06:50:56;;;;;;;9.20;6.13;;;-5.80;48.90;;;-7.28;57.61;99027.28;5035319;28;20498;-67
2024/01/09 06:53:24;;;;;;;12.40;7.23;;;-5.70;48.10;;;-7.36;57.69;99035.56;5034349;28;20492;-68
2024/01/09 06:55:51;;;;;;;11.23;6.23;;;-5.70;48.20;;;-7.36;57.33;99034.69;5041558;28;20500;-68
2024/01/09 06:58:19;;;;;;;18.53;7.80;;;-5.80;47.60;;;-7.49;56.94;99037.94;5034017;28;20986;-69
2024/01/09 07:00:46;;;;;;;16.50;7.00;;;-5.80;47.00;;;-7.42;56.60;99028.81;5044746;28;20450;-66
2024/01/09 07:03:13;;;;;;;13.13;7.00;;;-5.80;46.70;;;-7.34;56.74;99046.00;5050564;28;20874;-69
2024/01/09 07:05:40;;;;;;;14.03;7.40;;;-5.80;46.90;;;-7.49;56.01;99035.31;5044190;28;20484;-68
2024/01/09 07:08:09;;;;;;;13.27;6.60;;;-5.80;46.40;;;-7.47;55.34;99033.47;5029571;28;20516;-67
2024/01/09 07:10:36;;;;;;;13.97;6.80;;;-5.80;46.50;;;-7.38;55.85;99037.41;5032823;28;20478;-65
2024/01/09 07:13:03;;;;;;;12.80;6.87;;;-5.80;46.30;;;-7.40;55.34;99032.22;5042266;28;20531;-65
2024/01/09 07:15:32;;;;;;;11.80;6.63;;;-5.70;45.90;;;-7.35;55.68;99037.25;5040936;28;21399;-66
2024/01/09 07:18:00;;;;;;;13.97;7.83;;;-5.70;46.00;;;-7.40;55.03;99042.72;5039331;28;20199;-82
2024/01/09 07:20:28;;;;;;;9.50;5.63;;;-5.70;45.70;;;-7.21;55.41;99047.03;5038755;28;20437;-68
2024/01/09 07:22:55;;;;;;;11.00;6.07;;;-5.70;46.10;;;-7.30;54.88;99048.38;5034972;28;20447;-67
2024/01/09 07:25:24;;;;;;;9.57;6.23;;;-5.70;45.80;;;-7.20;54.61;99048.78;5033361;28;20482;-68
2024/01/09 07:27:51;;;;;;;14.47;8.00;;;-5.60;46.10;;;-7.28;54.66;99053.56;5037900;28;20446;-67
2024/01/09 07:30:19;;;;;;;11.10;6.87;;;-5.60;45.40;;;-7.23;54.59;99046.28;5041657;28;20450;-67
2024/01/09 07:32:47;;;;;;;13.20;6.63;;;-5.60;45.50;;;-7.16;53.97;99055.56;5042844;28;20464;-69
2024/01/09 07:35:14;;;;;;;14.00;7.70;;;-5.60;45.20;;;-7.23;53.91;99058.56;5046081;28;20446;-68
2024/01/09 07:37:41;;;;;;;11.27;6.20;;;-5.60;45.10;;;-7.24;54.29;99044.59;5047856;28;20949;-66
2024/01/09 07:40:10;;;;;;;11.87;7.63;;;-5.60;45.20;;;-7.15;53.31;99052.00;5031499;28;20572;-65
2024/01/09 07:42:39;;;;;;;11.83;6.40;;;-5.60;44.90;;;-7.15;53.44;99052.00;5057409;28;20474;-67
2024/01/09 07:45:11;;;;;;;13.53;7.10;;;-5.50;44.80;;;-6.99;54.03;99061.75;5042965;28;21114;-68
2024/01/09 07:47:38;;;;;;;9.33;6.33;;;-5.50;45.00;;;-6.97;53.25;99057.25;5044081;28;20476;-68
2024/01/09 07:50:06;;;;;;;9.02;5.55;;;-5.40;44.70;;;-7.04;52.81;99056.72;5044791;28;20798;-68
2024/01/09 07:52:34;;;;;;;11.33;6.40;;;-5.40;44.40;;;-6.93;52.25;99047.44;5045192;28;20203;-68
2024/01/09 07:55:01;;;;;;;11.97;6.80;;;-5.30;44.10;;;-6.91;52.65;99056.09;5044770;28;20461;-68
2024/01/09 07:57:29;;;;;;;10.33;5.27;;;-5.30;44.40;;;-6.84;52.49;99060.94;5053080;28;20460;-68
2024/01/09 07:59:58;;;;;;;9.17;6.43;;;-5.30;44.10;;;-7.26;52.36;98988.66;5042161;28;20453;-68
2024/01/09 08:02:25;;;;;;;9.57;6.38;;;-5.20;44.00;;;-6.76;52.32;99057.06;5039626;28;20453;-68
2024/01/09 08:04:52;;;;;;;10.70;5.77;;;-5.20;44.00;;;-6.68;51.95;99053.09;5042468;28;20222;-69
2024/01/09 08:07:19;;;;;;;11.57;5.95;;;-5.20;43.80;;;-6.69;51.98;99058.44;5036288;28;20505;-68
2024/01/09 08:09:46;;;;;;;11.02;5.47;;;-5.10;43.80;;;-6.73;51.54;99057.75;5047904;28;20576;-69
2024/01/09 08:12:14;;;;;;;11.60;6.43;;;-5.10;43.40;;;-6.61;51.55;99052.78;5047006;28;20657;-66
2024/01/09 08:14:41;;;;;;;13.47;5.70;;;-5.00;43.60;;;-6.56;50.98;99051.63;5039924;28;20444;-69
2024/01/09 08:17:10;;;;;;;9.80;7.23;;;-5.00;43.30;;;-6.58;51.07;99052.63;5036982;28;20870;-68
2024/01/09 08:19:37;;;;;;;8.33;6.30;;;-4.90;43.20;;;-6.50;50.67;99049.59;5045061;28;20458;-71
2024/01/09 08:22:05;;;;;;;10.43;7.00;;;-4.90;43.00;;;-6.95;50.49;98976.56;5045097;28;20465;-72
2024/01/09 08:24:32;;;;;;;9.67;5.73;;;-4.90;42.80;;;-6.48;50.53;99047.72;5046146;28;20447;-71
2024/01/09 08:26:59;;;;;;;11.70;6.90;;;-4.90;42.70;;;-6.46;50.64;99051.97;5052866;28;20485;-71
2024/01/09 08:29:29;;;;;;;12.07;6.30;;;-4.80;42.70;;;-6.42;50.51;99057.94;5049442;28;20959;-72
2024/01/09 08:31:57;;;;;;;11.80;6.80;;;-4.80;42.70;;;-6.37;49.66;99049.75;5036393;28;20974;-72
2024/01/09 08:34:26;;;;;;;14.50;7.60;;;-4.70;42.20;;;-6.24;49.77;99049.97;5044987;28;20532;-72
2024/01/09 08:36:54;;;;;;;16.10;6.20;;;-4.60;42.40;;;-6.17;49.76;99035.53;5036459;28;20504;-72
2024/01/09 08:39:21;;;;;;;21.87;7.10;;;-4.60;42.40;;;-6.21;49.71;99055.06;5043401;28;20486;-73
2024/01/09 08:41:48;;;;;;;12.23;7.67;;;-4.60;42.20;;;-6.10;49.95;99044.81;5044505;28;20463;-73
2024/01/09 08:44:16;;;;;;;10.43;6.50;;;-4.50;42.40;;;-5.88;49.16;99051.47;5057470;28;20505;-74
2024/01/09 08:46:44;;;;;;;12.27;7.27;;;-4.40;42.30;;;-5.96;49.09;99049.25;5035814;28;20582;-72
2024/01/09 08:49:12;;;;;;;13.30;7.37;;;-4.40;42.20;;;-5.90;49.05;99048.94;5044500;28;20450;-71
2024/01/09 08:51:41;;;;;;;10.67;6.80;;;-4.30;42.00;;;-5.94;48.54;99052.66;5040125;28;20455;-74
2024/01/09 08:54:09;;;;;;;11.53;6.00;;;-4.30;41.60;;;-5.80;48.81;99054.53;5060372;28;20447;-73
2024/01/09 08:56:36;;;;;;;9.43;5.97;;;-4.30;41.70;;;-5.59;48.26;99062.16;5046447;28;20442;-74
2024/01/09 08:59:04;;;;;;;12.87;6.73;;;-4.10;41.70;;;-5.68;47.61;99068.78;5041485;28;20489;-73
2024/01/09 09:01:35;;;;;;;13.10;7.50;;;-4.10;41.10;;;-5.62;47.07;99072.88;5034703;28;20460;-73
2024/01/09 09:04:02;;;;;;;12.83;6.40;;;-4.00;40.70;;;-5.63;46.73;99065.91;5044450;28;20560;-72
2024/01/09 09:06:30;;;;;;;12.77;7.73;;;-4.00;40.30;;;-5.55;46.46;99061.03;5041209;28;20572;-73
2024/01/09 09:08:59;;;;;;;10.70;6.63;;;-4.00;40.20;;;-5.48;46.39;99065.03;5043211;28;20450;-71
2024/01/09 09:11:26;;;;;;;9.33;5.43;;;-3.90;40.20;;;-5.46;45.97;99081.59;5044204;28;20480;-72
2024/01/09 09:13:53;;;;;;;12.00;6.73;;;-3.80;39.70;;;-5.36;45.45;99078.44;5043222;28;20454;-71
2024/01/09 09:16:22;;;;;;;12.70;6.40;;;-3.80;39.40;;;-5.38;45.39;99075.03;5035900;28;20460;-72
2024/01/09 09:18:49;;;;;;;13.73;7.13;;;-3.80;39.20;;;-5.79;45.32;99000.94;5048991;28;20866;-72
2024/01/09 09:21:19;;;;;;;15.03;6.30;;;-3.70;39.00;;;-5.24;44.57;99082.97;5033833;28;20451;-71
2024/01/09 09:23:47;;;;;;;10.20;6.63;;;-3.60;38.80;;;-5.25;44.82;99081.28;5054286;28;20463;-72
2024/01/09 09:26:15;;;;;;;11.00;6.50;;;-3.60;38.70;;;-5.28;44.95;99055.13;5040146;28;20560;-71
2024/01/09 09:28:47;;;;;;;12.33;7.63;;;-3.50;39.00;;;-5.02;44.06;99068.56;5041781;28;20449;-72
2024/01/09 09:31:15;;;;;;;11.50;6.90;;;-3.40;38.50;;;-4.99;43.64;99071.00;5039887;28;20547;-70
2024/01/09 09:33:43;;;;;;;12.17;6.53;;;-3.40;38.20;;;-4.84;44.20;99072.75;5039346;28;20458;-72
2024/01/09 09:36:12;;;;;;;15.20;6.47;;;-3.30;38.40;;;-5.25;43.93;98994.31;5044776;28;20449;-71
2024/01/09 09:38:40;;;;;;;9.30;7.00;;;-3.30;38.10;;;-4.92;43.40;99067.09;5045894;28;20460;-73
2024/01/09 09:41:07;;;;;;;11.07;7.17;;;-3.30;37.70;;;-5.37;43.66;98979.25;5045417;28;20469;-73
2024/01/09 09:43:36;;;;;;;8.67;5.43;;;-3.30;37.60;;;-4.73;43.36;99071.25;5030562;28;20454;-71
2024/01/09 09:46:04;;;;;;;11.07;6.30;;;-3.20;37.70;;;-4.73;42.88;99058.06;5040039;28;20537;-70
2024/01/09 09:48:33;;;;;;;8.50;5.30;;;-3.10;37.60;;;-4.47;42.85;99060.91;5043623;28;20569;-72
2024/01/09 09:51:02;;;;;;;7.93;6.00;;;-3.00;37.60;;;-4.42;42.74;99037.72;5052556;28;20485;-74
2024/01/09 09:53:31;;;;;;;13.47;6.33;;;-2.90;37.80;;;-4.46;42.29;99052.91;5044109;28;20450;-73
2024/01/09 09:55:59;;;;;;;10.47;7.20;;;-2.80;37.10;;;-4.54;41.95;99041.97;5034193;28;20517;-73
2024/01/09 09:58:27;;;;;;;13.50;6.40;;;-2.80;36.60;;;-4.37;41.54;99051.47;5033257;28;20458;-74
2024/01/09 10:00:59;;;;;;;11.57;5.77;;;-2.80;36.50;;;-4.31;41.43;99045.84;5039040;28;20509;-73
2024/01/09 10:03:32;;;;;;;11.40;5.80;;;-2.70;36.60;;;-4.24;41.03;99048.94;5034532;28;21032;-73
2024/01/09 10:06:05;;;;;;;11.63;5.87;;;-2.70;36.10;;;-4.16;40.63;99054.56;5038898;28;20583;-73
2024/01/09 10:08:35;;;;;;;6.63;5.20;;;-2.60;36.00;;;-4.01;41.33;99042.22;5063138;28;21013;-73
2024/01/09 10:11:04;;;;;;;13.37;6.57;;;-2.50;36.30;;;-4.03;40.24;99024.75;5037482;28;20454;-73
2024/01/09 10:13:32;;;;;;;8.80;6.17;;;-2.40;36.00;;;-3.92;40.13;99042.56;5030313;28;20463;-73
2024/01/09 10:16:02;;;;;;;8.33;5.17;;;-2.40;35.50;;;-3.78;39.90;99029.31;5041515;28;20467;-73